Disclaimer

Please do not use the information listed here in-flight or in-navigation, as they are not provided to us by the airports but are provided by volunteers, so they might be outdated.

Search


Regions


Airport information page

Radio informations:
AJACCIO TWR - 118.075 MHz
AJACCIO ATIS - 126.925 MHz
AJACCIO APP - 121.05 MHz

Airport informations:
Latitude: 41° 55' 25.09" N
Longitude: 008° 48' 10.50" E
Elevation: 18 feet - 5 meters
Operating hours: 24 hour operations
Operating agency: Civil government, landing fees and diplomatic clearance may be required
Timezone: UTC+1(+2DT) - Last Sunday in March to last Sunday in October
Fuel: Jet A1, without icing nhibitor.

100/130 MIL Spec, low lead, aviation gasoline (BLUE)

Runway information:
02/20 - 7897 x 148 feet< - >2407 x 45 meters

Recent METARs:
LFKJ 202200Z AUTO 05006KT CAVOK 09/07 Q1009 NOSIG
LFKJ 202230Z AUTO 04007KT 9999 SCT092 09/07 Q1009 NOSIG
LFKJ 202300Z AUTO 03006KT 9999 OVC094 09/08 Q1009 NOSIG

Airport on the map: